Time;durP1;ratioP1;P1;durP2;ratioP2;P2;SDS_P1;SDS_P2;PMS_P1;PMS_P2;Temp;Humidity;BMP_temperature;BMP_pressure;BME280_temperature;BME280_humidity;BME280_pressure;Samples;Min_cycle;Max_cycle;Signal;HPM_P1;HPM_P2
2023/01/21 05:28:00;;;;;;;22.50;16.55;;;;;;;;;;5041142;28;20593;-58
2023/01/21 05:30:26;;;;;;;27.58;17.35;;;;;;;;;;5029870;28;20230;-58
2023/01/21 05:32:53;;;;;;;20.92;15.68;;;;;;;;;;5030952;28;20262;-58
2023/01/21 05:35:22;;;;;;;21.15;14.52;;;;;;;;;;5031288;28;20274;-59
2023/01/21 05:37:49;;;;;;;17.40;14.00;;;;;;;;;;5030854;28;20186;-59
2023/01/21 05:40:15;;;;;;;16.42;11.88;;;;;;;;;;5030456;28;20302;-52
2023/01/21 05:42:42;;;;;;;13.10;10.18;;;;;;;;;;5044500;28;20560;-52
2023/01/21 05:45:09;;;;;;;13.23;10.50;;;;;;;;;;5027455;28;20185;-52
2023/01/21 05:47:35;;;;;;;14.13;9.98;;;;;;;;;;5022663;28;20298;-53
2023/01/21 05:50:01;;;;;;;11.63;9.30;;;;;;;;;;5027216;28;20176;-53
2023/01/21 05:52:27;;;;;;;11.88;9.48;;;;;;;;;;5021281;28;20190;-53
2023/01/21 05:54:53;;;;;;;10.75;8.85;;;;;;;;;;5028607;28;20525;-53
2023/01/21 05:57:19;;;;;;;9.02;8.13;;;;;;;;;;5026198;28;20188;-53
2023/01/21 05:59:46;;;;;;;12.68;8.38;;;;;;;;;;5032449;28;20532;-53
2023/01/21 06:02:12;;;;;;;10.25;7.88;;;;;;;;;;5030100;28;20505;-53
2023/01/21 06:04:38;;;;;;;8.48;7.45;;;;;;;;;;5024312;28;20180;-53
2023/01/21 06:07:04;;;;;;;11.82;8.05;;;;;;;;;;5026046;28;20215;-53
2023/01/21 06:09:30;;;;;;;8.60;7.53;;;;;;;;;;5030345;28;20601;-53
2023/01/21 06:11:56;;;;;;;11.18;8.07;;;;;;;;;;5027895;28;20188;-53
2023/01/21 06:14:22;;;;;;;9.40;7.47;;;;;;;;;;5029821;28;20250;-53
2023/01/21 06:16:48;;;;;;;9.50;7.28;;;;;;;;;;5028887;28;20452;-53
2023/01/21 06:19:13;;;;;;;8.60;6.65;;;;;;;;;;5026195;28;20195;-53
2023/01/21 06:21:39;;;;;;;8.75;7.65;;;;;;;;;;5026281;28;20184;-57
2023/01/21 06:24:05;;;;;;;10.82;6.82;;;;;;;;;;5020759;28;20199;-52
2023/01/21 06:26:32;;;;;;;10.43;7.60;;;;;;;;;;5026253;28;20287;-49
2023/01/21 06:28:58;;;;;;;8.75;7.05;;;;;;;;;;5026700;28;20185;-49
2023/01/21 06:31:24;;;;;;;12.30;6.85;;;;;;;;;;5027712;28;20193;-49
2023/01/21 06:33:50;;;;;;;9.32;6.50;;;;;;;;;;5025801;28;20212;-49
2023/01/21 06:36:16;;;;;;;8.43;7.00;;;;;;;;;;5019086;28;20499;-49
2023/01/21 06:38:42;;;;;;;13.02;6.55;;;;;;;;;;5017202;28;20627;-49
2023/01/21 06:41:08;;;;;;;7.72;5.88;;;;;;;;;;5016081;28;20323;-49
2023/01/21 06:43:34;;;;;;;8.73;6.45;;;;;;;;;;5014962;28;20567;-49
2023/01/21 06:46:00;;;;;;;7.45;5.43;;;;;;;;;;5012075;28;20591;-49
2023/01/21 06:48:26;;;;;;;8.80;5.90;;;;;;;;;;5006921;28;20190;-49
2023/01/21 06:50:52;;;;;;;8.52;5.80;;;;;;;;;;5009489;28;20196;-49
2023/01/21 06:53:18;;;;;;;6.25;5.20;;;;;;;;;;5014363;28;20184;-49
2023/01/21 06:55:46;;;;;;;7.07;5.55;;;;;;;;;;5016099;28;20193;-49
2023/01/21 06:58:12;;;;;;;8.32;5.50;;;;;;;;;;5012438;28;20503;-50
2023/01/21 07:00:38;;;;;;;7.68;5.25;;;;;;;;;;5003926;28;20189;-51
2023/01/21 07:03:04;;;;;;;7.10;5.18;;;;;;;;;;5003676;28;20200;-51
2023/01/21 07:05:29;;;;;;;7.72;5.15;;;;;;;;;;5017287;28;20183;-51
2023/01/21 07:07:58;;;;;;;6.38;4.65;;;;;;;;;;5009993;28;20598;-52
2023/01/21 07:10:24;;;;;;;9.23;5.28;;;;;;;;;;5007425;28;20238;-51
2023/01/21 07:12:51;;;;;;;7.57;4.90;;;;;;;;;;5005990;28;20189;-56
2023/01/21 07:15:17;;;;;;;6.32;4.75;;;;;;;;;;5015425;28;20243;-51
2023/01/21 07:17:43;;;;;;;5.10;4.60;;;;;;;;;;5016288;28;20188;-53
2023/01/21 07:20:11;;;;;;;7.38;4.88;;;;;;;;;;5001225;28;20235;-53
2023/01/21 07:22:37;;;;;;;5.07;3.90;;;;;;;;;;5011185;28;20219;-60
2023/01/21 07:25:03;;;;;;;5.47;4.30;;;;;;;;;;5009907;28;20180;-53
2023/01/21 07:27:29;;;;;;;6.28;4.38;;;;;;;;;;5005976;28;20630;-53
2023/01/21 07:29:54;;;;;;;4.82;4.03;;;;;;;;;;5011398;28;20189;-53
2023/01/21 07:32:20;;;;;;;5.13;4.50;;;;;;;;;;5010210;28;20187;-52
2023/01/21 07:34:46;;;;;;;10.27;4.53;;;;;;;;;;5014955;28;20559;-51
2023/01/21 07:37:12;;;;;;;8.82;4.22;;;;;;;;;;5008193;28;20208;-52
2023/01/21 07:39:38;;;;;;;9.02;4.20;;;;;;;;;;5013041;28;20230;-51
2023/01/21 07:42:04;;;;;;;15.70;4.25;;;;;;;;;;5011764;28;20235;-48
2023/01/21 07:44:30;;;;;;;10.93;4.10;;;;;;;;;;5013400;28;20181;-48
2023/01/21 07:46:56;;;;;;;7.90;3.95;;;;;;;;;;5014853;28;20214;-48
2023/01/21 07:49:22;;;;;;;10.20;3.80;;;;;;;;;;5006880;28;20264;-48
2023/01/21 07:51:48;;;;;;;6.22;3.53;;;;;;;;;;5011061;28;20209;-48
2023/01/21 07:54:14;;;;;;;5.20;3.50;;;;;;;;;;5003368;28;20565;-48
2023/01/21 07:56:40;;;;;;;7.57;3.45;;;;;;;;;;5006337;28;20208;-50
2023/01/21 07:59:06;;;;;;;7.45;3.30;;;;;;;;;;5012911;28;20262;-51
2023/01/21 08:01:32;;;;;;;7.88;3.75;;;;;;;;;;5014910;28;20258;-48
2023/01/21 08:03:58;;;;;;;8.15;3.72;;;;;;;;;;5009962;28;20187;-53
2023/01/21 08:06:24;;;;;;;7.25;4.10;;;;;;;;;;5001709;28;20209;-48
2023/01/21 08:08:51;;;;;;;6.00;3.35;;;;;;;;;;5008727;28;20517;-48
2023/01/21 08:11:17;;;;;;;8.15;3.53;;;;;;;;;;5015398;28;20556;-48
2023/01/21 08:13:43;;;;;;;7.25;4.00;;;;;;;;;;5014599;28;20184;-48
2023/01/21 08:16:12;;;;;;;100.90;29.00;;;;;;;;;;5014344;28;20185;-48
2023/01/21 08:18:38;;;;;;;55.42;18.48;;;;;;;;;;5008933;28;20243;-48
2023/01/21 08:21:04;;;;;;;46.53;15.32;;;;;;;;;;5004085;28;20264;-48
2023/01/21 08:23:30;;;;;;;35.90;12.35;;;;;;;;;;5004928;28;20222;-49
2023/01/21 08:25:57;;;;;;;37.80;12.68;;;;;;;;;;5003273;28;20209;-48
2023/01/21 08:28:23;;;;;;;30.80;11.60;;;;;;;;;;5010675;28;20466;-48
2023/01/21 08:30:49;;;;;;;25.27;10.32;;;;;;;;;;5010406;28;20510;-48
2023/01/21 08:33:15;;;;;;;34.10;10.10;;;;;;;;;;5011831;28;20748;-48
2023/01/21 08:35:41;;;;;;;25.00;8.80;;;;;;;;;;5015112;28;20560;-48
2023/01/21 08:38:07;;;;;;;20.30;8.40;;;;;;;;;;5009489;28;20188;-48
2023/01/21 08:40:33;;;;;;;20.58;7.88;;;;;;;;;;5009026;28;20619;-48
2023/01/21 08:43:00;;;;;;;16.83;6.55;;;;;;;;;;5005664;28;20177;-48
2023/01/21 08:45:27;;;;;;;16.55;6.28;;;;;;;;;;5015050;28;20177;-48
2023/01/21 08:47:53;;;;;;;14.98;6.20;;;;;;;;;;5009795;28;20208;-48
2023/01/21 08:50:19;;;;;;;12.52;5.18;;;;;;;;;;5011785;28;20184;-48
2023/01/21 08:52:52;;;;;;;16.08;5.20;;;;;;;;;;5006666;28;20536;-48
2023/01/21 08:55:18;;;;;;;11.27;4.60;;;;;;;;;;5010145;28;20523;-48
2023/01/21 08:57:44;;;;;;;8.45;4.78;;;;;;;;;;5005170;28;20200;-48
2023/01/21 09:00:11;;;;;;;9.80;4.93;;;;;;;;;;5012461;28;20258;-48
2023/01/21 09:02:36;;;;;;;9.75;4.63;;;;;;;;;;5007733;28;20192;-48
2023/01/21 09:05:02;;;;;;;9.48;4.88;;;;;;;;;;5007291;28;20197;-48
2023/01/21 09:07:28;;;;;;;8.02;4.35;;;;;;;;;;5010248;28;20204;-48
2023/01/21 09:09:54;;;;;;;9.27;4.15;;;;;;;;;;5010640;28;20185;-48
2023/01/21 09:12:20;;;;;;;9.40;4.97;;;;;;;;;;5010059;28;20197;-48
2023/01/21 09:14:46;;;;;;;8.20;4.35;;;;;;;;;;5023578;28;20187;-48
2023/01/21 09:17:12;;;;;;;11.23;4.28;;;;;;;;;;5014134;28;20601;-48
2023/01/21 09:19:38;;;;;;;9.98;4.97;;;;;;;;;;5008213;28;20263;-48
2023/01/21 09:22:05;;;;;;;12.55;4.40;;;;;;;;;;5012246;28;20208;-48
2023/01/21 09:24:31;;;;;;;6.82;4.28;;;;;;;;;;5006114;28;20213;-48
2023/01/21 09:26:57;;;;;;;6.15;4.15;;;;;;;;;;5001921;28;20216;-48
2023/01/21 09:29:23;;;;;;;7.35;4.28;;;;;;;;;;5012210;28;20191;-48
2023/01/21 09:31:49;;;;;;;8.32;4.72;;;;;;;;;;5009932;28;20185;-48
2023/01/21 09:34:15;;;;;;;7.85;4.13;;;;;;;;;;5013559;28;20180;-48
2023/01/21 09:36:41;;;;;;;6.63;4.00;;;;;;;;;;5014139;28;20180;-48
2023/01/21 09:39:07;;;;;;;7.07;4.53;;;;;;;;;;5011430;28;20184;-48
2023/01/21 09:41:37;;;;;;;5.53;3.60;;;;;;;;;;5008620;28;20221;-48
2023/01/21 09:44:21;;;;;;;6.35;3.92;;;;;;;;;;5009989;28;20216;-49
2023/01/21 09:47:06;;;;;;;12.65;4.72;;;;;;;;;;5013289;28;20219;-49
2023/01/21 09:49:34;;;;;;;7.22;4.53;;;;;;;;;;5001692;28;20208;-48
2023/01/21 09:52:00;;;;;;;10.35;4.15;;;;;;;;;;5012195;28;20444;-48
2023/01/21 09:54:27;;;;;;;6.47;4.40;;;;;;;;;;5010718;28;20564;-48
2023/01/21 09:57:02;;;;;;;5.55;4.32;;;;;;;;;;5007142;28;20215;-48
2023/01/21 09:59:43;;;;;;;6.97;4.45;;;;;;;;;;5003118;28;20226;-48
2023/01/21 10:02:16;;;;;;;7.07;4.32;;;;;;;;;;5007070;28;20558;-48
2023/01/21 10:04:45;;;;;;;9.73;4.72;;;;;;;;;;5009071;28;20534;-48
2023/01/21 10:07:14;;;;;;;7.05;4.22;;;;;;;;;;5008978;28;20607;-48
2023/01/21 10:09:55;;;;;;;8.38;4.15;;;;;;;;;;5014452;28;20234;-48
2023/01/21 10:12:26;;;;;;;8.45;4.13;;;;;;;;;;5007348;28;20192;-48
2023/01/21 10:15:24;;;;;;;7.43;4.18;;;;;;;;;;5016825;28;20189;-48
2023/01/21 10:17:55;;;;;;;7.57;4.72;;;;;;;;;;5004974;28;20227;-48
2023/01/21 10:20:21;;;;;;;5.88;3.85;;;;;;;;;;5016755;28;20184;-48
2023/01/21 10:23:01;;;;;;;6.78;4.20;;;;;;;;;;5010423;28;20176;-48
2023/01/21 10:25:30;;;;;;;8.35;4.18;;;;;;;;;;5006023;28;20267;-48
2023/01/21 10:27:57;;;;;;;8.57;4.25;;;;;;;;;;5012709;28;20205;-48
2023/01/21 10:30:26;;;;;;;6.03;4.25;;;;;;;;;;5017552;28;20244;-48
2023/01/21 10:32:53;;;;;;;6.20;3.97;;;;;;;;;;5011047;28;20267;-48
2023/01/21 10:35:24;;;;;;;5.53;4.15;;;;;;;;;;5014418;28;20188;-48
2023/01/21 10:37:58;;;;;;;6.28;4.22;;;;;;;;;;5016414;28;20179;-48
2023/01/21 10:40:43;;;;;;;7.53;4.10;;;;;;;;;;5017411;28;20338;-48
2023/01/21 10:43:09;;;;;;;6.32;4.15;;;;;;;;;;5014332;28;20231;-48
2023/01/21 10:45:57;;;;;;;6.20;4.07;;;;;;;;;;5014515;28;20188;-48
2023/01/21 10:48:23;;;;;;;5.78;4.00;;;;;;;;;;5016363;28;20392;-48
2023/01/21 10:51:09;;;;;;;4.43;4.03;;;;;;;;;;5016417;28;20472;-48
2023/01/21 10:53:46;;;;;;;4.80;3.60;;;;;;;;;;5003636;28;20412;-48
2023/01/21 10:56:32;;;;;;;6.22;3.85;;;;;;;;;;5009678;28;20212;-48
2023/01/21 10:59:04;;;;;;;7.07;4.47;;;;;;;;;;5015474;28;20184;-48
2023/01/21 11:01:35;;;;;;;4.35;3.95;;;;;;;;;;5013213;28;20191;-48
2023/01/21 11:04:06;;;;;;;4.53;4.03;;;;;;;;;;5008873;28;20259;-48
2023/01/21 11:06:34;;;;;;;5.85;4.18;;;;;;;;;;5014793;28;20780;-48
2023/01/21 11:09:02;;;;;;;5.97;3.80;;;;;;;;;;5016285;28;20319;-48
2023/01/21 11:11:30;;;;;;;4.43;3.83;;;;;;;;;;5013518;28;20176;-48
2023/01/21 11:13:56;;;;;;;5.35;3.97;;;;;;;;;;5013933;28;20192;-48
2023/01/21 11:16:44;;;;;;;4.90;3.70;;;;;;;;;;5017066;28;20212;-48
2023/01/21 11:19:17;;;;;;;5.20;4.15;;;;;;;;;;5011032;28;20188;-48
2023/01/21 11:21:59;;;;;;;4.53;3.88;;;;;;;;;;5003354;28;20189;-48
2023/01/21 11:24:25;;;;;;;3.72;3.30;;;;;;;;;;5015008;28;20188;-48
2023/01/21 11:26:53;;;;;;;5.03;4.13;;;;;;;;;;5007823;28;20213;-48
2023/01/21 11:29:20;;;;;;;5.07;3.80;;;;;;;;;;5008388;28;20189;-48
2023/01/21 11:31:48;;;;;;;4.18;3.78;;;;;;;;;;5017208;28;20181;-48
2023/01/21 11:34:18;;;;;;;4.38;3.72;;;;;;;;;;5010838;28;20190;-48
2023/01/21 11:36:54;;;;;;;5.93;3.75;;;;;;;;;;5013325;28;20180;-48
2023/01/21 11:39:23;;;;;;;4.45;3.30;;;;;;;;;;5012590;28;20192;-48
2023/01/21 11:41:53;;;;;;;7.38;3.60;;;;;;;;;;5016139;28;20188;-48
2023/01/21 11:44:19;;;;;;;4.47;3.50;;;;;;;;;;5013831;28;20195;-48
2023/01/21 11:46:45;;;;;;;5.90;3.92;;;;;;;;;;5016796;28;20207;-48
2023/01/21 11:49:11;;;;;;;8.75;3.65;;;;;;;;;;5009794;28;20184;-48
2023/01/21 11:51:38;;;;;;;5.97;3.28;;;;;;;;;;5009177;28;20507;-48
2023/01/21 11:54:07;;;;;;;5.15;3.90;;;;;;;;;;5008619;28;20181;-48
2023/01/21 11:56:34;;;;;;;5.40;3.25;;;;;;;;;;5008049;28;20258;-48
2023/01/21 11:59:00;;;;;;;4.38;3.22;;;;;;;;;;5008213;28;20197;-48
2023/01/21 12:01:26;;;;;;;4.03;3.40;;;;;;;;;;5013796;28;20564;-48
2023/01/21 12:03:53;;;;;;;5.07;3.50;;;;;;;;;;5008235;28;20218;-48
2023/01/21 12:06:21;;;;;;;4.88;3.42;;;;;;;;;;5013983;28;20219;-48
2023/01/21 12:08:48;;;;;;;4.90;3.22;;;;;;;;;;5013039;28;20222;-49
2023/01/21 12:11:18;;;;;;;5.07;3.33;;;;;;;;;;5015779;28;20199;-48
2023/01/21 12:13:53;;;;;;;3.90;2.92;;;;;;;;;;5012843;28;20180;-48
2023/01/21 12:16:30;;;;;;;4.22;3.05;;;;;;;;;;5015128;28;20222;-48
2023/01/21 12:19:02;;;;;;;5.53;3.63;;;;;;;;;;5010207;28;20188;-48
2023/01/21 12:21:47;;;;;;;3.40;3.00;;;;;;;;;;5013511;28;20220;-48
2023/01/21 12:24:31;;;;;;;3.92;3.30;;;;;;;;;;5009267;28;20195;-48
2023/01/21 12:27:09;;;;;;;3.65;2.95;;;;;;;;;;5001713;28;20215;-48
2023/01/21 12:29:43;;;;;;;4.57;3.25;;;;;;;;;;5010313;28;20176;-48
2023/01/21 12:32:28;;;;;;;3.47;3.00;;;;;;;;;;5009114;28;20263;-48
2023/01/21 12:35:02;;;;;;;4.70;3.10;;;;;;;;;;5009537;28;20203;-48
2023/01/21 12:37:34;;;;;;;7.78;3.03;;;;;;;;;;5004604;28;20189;-48
2023/01/21 12:40:04;;;;;;;3.85;3.22;;;;;;;;;;5013455;28;20188;-48
2023/01/21 12:42:36;;;;;;;4.32;3.20;;;;;;;;;;5008721;28;20204;-48
2023/01/21 12:45:03;;;;;;;3.97;2.70;;;;;;;;;;5012054;28;20180;-48
2023/01/21 12:47:41;;;;;;;3.63;3.08;;;;;;;;;;5013253;28;20200;-48
2023/01/21 12:50:21;;;;;;;3.95;3.13;;;;;;;;;;5000010;28;20184;-48
2023/01/21 12:52:51;;;;;;;4.85;3.05;;;;;;;;;;5013564;28;20226;-48
2023/01/21 12:55:23;;;;;;;3.42;2.78;;;;;;;;;;5014348;28;20338;-48
2023/01/21 12:57:55;;;;;;;5.25;3.08;;;;;;;;;;5014080;28;20931;-48
2023/01/21 13:00:23;;;;;;;4.97;3.13;;;;;;;;;;5007285;28;20188;-48
2023/01/21 13:02:55;;;;;;;3.53;3.08;;;;;;;;;;5010593;28;20208;-48
2023/01/21 13:05:27;;;;;;;3.78;3.10;;;;;;;;;;5004557;28;20181;-48
2023/01/21 13:07:55;;;;;;;7.10;3.38;;;;;;;;;;5002638;28;20204;-48
2023/01/21 13:10:30;;;;;;;6.63;3.03;;;;;;;;;;5008614;28;20196;-48
2023/01/21 13:13:01;;;;;;;3.35;2.85;;;;;;;;;;5011371;28;20176;-48
2023/01/21 13:15:29;;;;;;;4.47;3.13;;;;;;;;;;5013596;28;20180;-48
2023/01/21 13:17:57;;;;;;;7.97;3.67;;;;;;;;;;5006836;28;20513;-48
2023/01/21 13:20:24;;;;;;;6.47;3.58;;;;;;;;;;5007712;28;20223;-48
2023/01/21 13:23:06;;;;;;;5.05;3.40;;;;;;;;;;5012583;28;20563;-48
2023/01/21 13:25:38;;;;;;;4.45;3.60;;;;;;;;;;5006778;28;20230;-48
2023/01/21 13:28:07;;;;;;;5.57;3.53;;;;;;;;;;4998849;28;20231;-48
2023/01/21 13:30:41;;;;;;;4.10;3.38;;;;;;;;;;4999310;28;20194;-48
2023/01/21 13:33:09;;;;;;;5.10;3.65;;;;;;;;;;5007817;28;20582;-48
2023/01/21 13:35:38;;;;;;;10.18;3.80;;;;;;;;;;5008880;28;20254;-48
2023/01/21 13:38:23;;;;;;;6.47;3.35;;;;;;;;;;5011013;28;20203;-48
2023/01/21 13:40:54;;;;;;;7.60;3.70;;;;;;;;;;5013411;28;20246;-48
2023/01/21 13:43:28;;;;;;;5.32;3.40;;;;;;;;;;5008040;28;20188;-48
2023/01/21 13:46:03;;;;;;;4.28;3.42;;;;;;;;;;5012775;28;20578;-48
2023/01/21 13:48:48;;;;;;;4.20;3.33;;;;;;;;;;5013862;28;20187;-48
2023/01/21 13:51:25;;;;;;;4.72;3.80;;;;;;;;;;5009913;28;20275;-48
2023/01/21 13:53:51;;;;;;;5.88;4.05;;;;;;;;;;5008416;28;20238;-48
2023/01/21 13:56:36;;;;;;;5.22;4.03;;;;;;;;;;5015157;28;20291;-48
2023/01/21 13:59:22;;;;;;;4.72;3.78;;;;;;;;;;5016730;28;20238;-48
2023/01/21 14:01:55;;;;;;;4.80;3.60;;;;;;;;;;5011341;28;20451;-48
2023/01/21 14:04:29;;;;;;;6.82;3.72;;;;;;;;;;5012360;28;20251;-48
2023/01/21 14:07:00;;;;;;;4.82;3.83;;;;;;;;;;5016638;28;20657;-48
2023/01/21 14:09:37;;;;;;;6.45;3.83;;;;;;;;;;5014249;28;20184;-48
2023/01/21 14:12:18;;;;;;;5.57;3.90;;;;;;;;;;5013258;28;20180;-48
2023/01/21 14:15:03;;;;;;;6.00;4.03;;;;;;;;;;5016594;28;20191;-48
2023/01/21 14:17:34;;;;;;;5.85;4.18;;;;;;;;;;5016861;28;20180;-48
2023/01/21 14:20:00;;;;;;;5.07;3.58;;;;;;;;;;5008882;28;20845;-48
2023/01/21 14:22:37;;;;;;;8.43;4.18;;;;;;;;;;5015897;28;20275;-48
2023/01/21 14:25:21;;;;;;;6.30;3.88;;;;;;;;;;5016426;28;20192;-48
2023/01/21 14:28:10;;;;;;;11.95;4.20;;;;;;;;;;5014124;28;20223;-48
2023/01/21 14:30:58;;;;;;;6.57;4.13;;;;;;;;;;5009719;28;20177;-48
2023/01/21 14:33:29;;;;;;;4.93;3.67;;;;;;;;;;5012611;28;20382;-48
2023/01/21 14:35:55;;;;;;;6.22;3.83;;;;;;;;;;5013405;28;20176;-48
2023/01/21 14:38:25;;;;;;;6.95;3.90;;;;;;;;;;5010707;28;20276;-48
2023/01/21 14:41:03;;;;;;;6.57;3.58;;;;;;;;;;5014608;28;20271;-48
2023/01/21 14:43:31;;;;;;;7.85;3.97;;;;;;;;;;5010930;28;20212;-48
2023/01/21 14:45:59;;;;;;;9.23;3.22;;;;;;;;;;5010316;28;20199;-48
2023/01/21 14:48:32;;;;;;;8.85;3.72;;;;;;;;;;5012432;28;20191;-48
2023/01/21 14:51:07;;;;;;;5.07;3.35;;;;;;;;;;5004310;28;20188;-48
2023/01/21 14:53:41;;;;;;;5.55;3.42;;;;;;;;;;5012891;28;20195;-48
2023/01/21 14:56:11;;;;;;;5.97;3.72;;;;;;;;;;5017072;28;20202;-48
2023/01/21 14:58:37;;;;;;;5.32;3.10;;;;;;;;;;5011968;28;20168;-48
2023/01/21 15:01:05;;;;;;;10.52;3.63;;;;;;;;;;5008316;28;20267;-48
2023/01/21 15:03:31;;;;;;;10.82;3.50;;;;;;;;;;5008661;28;20191;-48
2023/01/21 15:06:01;;;;;;;10.65;3.72;;;;;;;;;;5003700;28;20181;-48
2023/01/21 15:08:29;;;;;;;5.57;3.00;;;;;;;;;;5009666;28;20227;-48
2023/01/21 15:10:58;;;;;;;9.27;2.95;;;;;;;;;;5012650;28;20204;-48
2023/01/21 15:13:33;;;;;;;7.20;3.30;;;;;;;;;;5014265;28;20428;-48
2023/01/21 15:16:05;;;;;;;9.25;3.30;;;;;;;;;;5012377;28;20191;-48
2023/01/21 15:18:39;;;;;;;12.88;3.33;;;;;;;;;;5013438;28;20192;-48
2023/01/21 15:21:23;;;;;;;10.07;3.30;;;;;;;;;;5012568;28;20192;-48
2023/01/21 15:23:49;;;;;;;6.55;3.05;;;;;;;;;;5008776;28;20472;-48
2023/01/21 15:26:19;;;;;;;6.43;2.85;;;;;;;;;;5015538;28;20207;-48
2023/01/21 15:28:45;;;;;;;10.93;2.85;;;;;;;;;;5014306;28;20191;-48
2023/01/21 15:31:31;;;;;;;6.00;2.72;;;;;;;;;;5010151;28;20169;-48
2023/01/21 15:34:02;;;;;;;6.82;3.08;;;;;;;;;;5008195;28;20196;-48
2023/01/21 15:36:30;;;;;;;7.97;2.97;;;;;;;;;;5013273;28;20193;-48
2023/01/21 15:39:03;;;;;;;6.28;2.60;;;;;;;;;;5013370;28;20195;-48
2023/01/21 15:41:42;;;;;;;5.72;2.63;;;;;;;;;;5008404;28;20227;-48
2023/01/21 15:44:17;;;;;;;5.53;2.78;;;;;;;;;;5008691;28;20196;-48
2023/01/21 15:47:02;;;;;;;5.60;2.67;;;;;;;;;;5005257;28;20223;-48
2023/01/21 15:49:46;;;;;;;5.32;2.67;;;;;;;;;;5004288;28;20193;-48
2023/01/21 15:52:30;;;;;;;4.97;2.67;;;;;;;;;;5009874;28;20185;-48
2023/01/21 15:55:14;;;;;;;7.82;3.13;;;;;;;;;;5007232;28;20189;-48
2023/01/21 15:57:58;;;;;;;5.15;2.53;;;;;;;;;;5005846;28;20240;-48
2023/01/21 16:00:27;;;;;;;6.55;2.60;;;;;;;;;;5004927;28;20185;-48
2023/01/21 16:03:08;;;;;;;4.13;2.67;;;;;;;;;;5013811;28;20191;-48
2023/01/21 16:05:48;;;;;;;4.65;2.90;;;;;;;;;;5003321;28;20184;-48
2023/01/21 16:08:20;;;;;;;2.60;2.40;;;;;;;;;;5008646;28;20264;-48
2023/01/21 16:10:54;;;;;;;5.82;2.65;;;;;;;;;;5002573;28;20173;-48
2023/01/21 16:13:23;;;;;;;4.03;2.47;;;;;;;;;;5008220;28;20187;-48
2023/01/21 16:16:08;;;;;;;4.20;2.30;;;;;;;;;;5009002;28;20202;-48
2023/01/21 16:18:40;;;;;;;6.22;2.95;;;;;;;;;;5012033;28;20184;-48
2023/01/21 16:21:06;;;;;;;3.08;2.53;;;;;;;;;;5014928;28;20241;-48
2023/01/21 16:23:35;;;;;;;3.97;2.20;;;;;;;;;;5009131;28;20188;-48
2023/01/21 16:26:02;;;;;;;3.55;2.33;;;;;;;;;;5013375;28;20206;-48
2023/01/21 16:28:42;;;;;;;3.03;2.40;;;;;;;;;;5010002;28;20187;-48
2023/01/21 16:31:08;;;;;;;3.83;2.47;;;;;;;;;;5013348;28;20543;-48
2023/01/21 16:33:33;;;;;;;3.63;2.40;;;;;;;;;;5013807;28;20184;-51
2023/01/21 16:36:02;;;;;;;8.40;2.95;;;;;;;;;;5013398;28;20195;-51
2023/01/21 16:38:28;;;;;;;4.35;2.50;;;;;;;;;;5013882;28;20350;-51
2023/01/21 16:41:07;;;;;;;2.38;2.15;;;;;;;;;;5014720;28;20181;-51
2023/01/21 16:43:36;;;;;;;6.13;2.40;;;;;;;;;;5013063;28;20206;-51
2023/01/21 16:46:04;;;;;;;5.05;2.55;;;;;;;;;;5011411;28;20235;-52
2023/01/21 16:48:31;;;;;;;5.05;2.75;;;;;;;;;;5006689;28;20574;-52
2023/01/21 16:50:57;;;;;;;5.93;2.53;;;;;;;;;;5007221;28;20263;-52
2023/01/21 16:53:24;;;;;;;4.85;2.63;;;;;;;;;;5008238;28;20185;-52
2023/01/21 16:55:52;;;;;;;3.53;2.35;;;;;;;;;;5009788;28;20192;-51
2023/01/21 16:58:25;;;;;;;6.38;2.70;;;;;;;;;;5007050;28;20192;-51
2023/01/21 17:00:59;;;;;;;3.83;2.28;;;;;;;;;;5011262;28;20196;-52
2023/01/21 17:03:25;;;;;;;6.20;2.63;;;;;;;;;;5009635;28;20189;-51
2023/01/21 17:05:53;;;;;;;3.90;2.30;;;;;;;;;;5007354;28;20196;-52
2023/01/21 17:08:19;;;;;;;3.20;2.15;;;;;;;;;;5001217;28;20662;-52
2023/01/21 17:10:59;;;;;;;4.10;2.55;;;;;;;;;;5000608;28;20184;-51
2023/01/21 17:13:25;;;;;;;3.17;2.28;;;;;;;;;;5009063;28;20180;-52
2023/01/21 17:15:59;;;;;;;2.80;2.35;;;;;;;;;;5006354;28;20199;-52
2023/01/21 17:18:34;;;;;;;2.80;2.28;;;;;;;;;;5009649;28;20179;-51
2023/01/21 17:21:07;;;;;;;3.05;2.45;;;;;;;;;;5012568;28;20246;-51
2023/01/21 17:23:36;;;;;;;3.30;1.90;;;;;;;;;;5009537;28;20177;-52
2023/01/21 17:26:07;;;;;;;2.60;2.40;;;;;;;;;;5014996;28;20188;-52
2023/01/21 17:28:56;;;;;;;2.30;2.10;;;;;;;;;;5005404;28;20178;-51
2023/01/21 17:31:25;;;;;;;4.55;2.15;;;;;;;;;;5010991;28;20192;-51
2023/01/21 17:34:01;;;;;;;4.65;2.38;;;;;;;;;;5011593;28;20439;-52
2023/01/21 17:36:47;;;;;;;3.22;2.20;;;;;;;;;;5014147;28;20885;-51
2023/01/21 17:39:15;;;;;;;2.25;1.95;;;;;;;;;;5006169;28;20571;-51
2023/01/21 17:41:41;;;;;;;2.63;2.00;;;;;;;;;;5014118;28;20219;-51
2023/01/21 17:44:18;;;;;;;2.53;2.15;;;;;;;;;;5006992;28;20200;-51
2023/01/21 17:46:49;;;;;;;2.50;1.95;;;;;;;;;;5010941;28;20212;-52
2023/01/21 17:49:20;;;;;;;2.03;1.88;;;;;;;;;;5011150;28;20196;-51
2023/01/21 17:51:46;;;;;;;3.67;2.00;;;;;;;;;;5007871;28;20222;-51
2023/01/21 17:54:20;;;;;;;2.58;1.80;;;;;;;;;;5010287;28;20592;-51
2023/01/21 17:56:56;;;;;;;3.03;2.15;;;;;;;;;;5011301;28;20469;-51
2023/01/21 17:59:36;;;;;;;2.90;2.20;;;;;;;;;;5006170;28;20193;-51
2023/01/21 18:02:12;;;;;;;2.50;1.75;;;;;;;;;;5014032;28;20181;-52
2023/01/21 18:04:39;;;;;;;1.77;1.60;;;;;;;;;;5005198;28;20192;-51
2023/01/21 18:07:06;;;;;;;3.08;1.85;;;;;;;;;;5013480;28;20603;-52
2023/01/21 18:09:34;;;;;;;2.40;1.95;;;;;;;;;;5006184;28;20181;-51
2023/01/21 18:11:59;;;;;;;2.33;1.70;;;;;;;;;;5013977;28;20212;-52
2023/01/21 18:14:26;;;;;;;1.77;1.67;;;;;;;;;;5003684;28;20224;-51
2023/01/21 18:16:52;;;;;;;1.75;1.65;;;;;;;;;;5014565;28;20642;-52
2023/01/21 18:19:35;;;;;;;2.78;1.83;;;;;;;;;;5009415;28;20215;-52
2023/01/21 18:22:02;;;;;;;1.83;1.73;;;;;;;;;;5028630;28;20184;-52
2023/01/21 18:24:28;;;;;;;1.67;1.58;;;;;;;;;;5008281;28;20551;-51
2023/01/21 18:26:56;;;;;;;2.08;1.70;;;;;;;;;;5009534;28;20514;-52
2023/01/21 18:29:22;;;;;;;1.58;1.48;;;;;;;;;;5008846;28;20191;-52
2023/01/21 18:31:50;;;;;;;2.03;1.50;;;;;;;;;;5013110;28;20180;-51
2023/01/21 18:34:16;;;;;;;2.40;1.60;;;;;;;;;;5009964;28;20555;-51
2023/01/21 18:36:42;;;;;;;1.75;1.50;;;;;;;;;;5016432;28;20188;-51
2023/01/21 18:39:27;;;;;;;2.58;1.40;;;;;;;;;;5016154;28;20234;-52
2023/01/21 18:41:52;;;;;;;1.83;1.65;;;;;;;;;;5006540;28;20265;-51
2023/01/21 18:44:18;;;;;;;1.70;1.60;;;;;;;;;;5010978;28;20827;-52
2023/01/21 18:46:44;;;;;;;1.70;1.60;;;;;;;;;;5009306;28;20212;-51
2023/01/21 18:49:20;;;;;;;1.75;1.65;;;;;;;;;;5015507;28;20183;-52
2023/01/21 18:51:46;;;;;;;1.65;1.45;;;;;;;;;;5013758;28;20184;-52
2023/01/21 18:54:13;;;;;;;1.38;1.27;;;;;;;;;;5014027;28;20633;-51
2023/01/21 18:56:41;;;;;;;1.70;1.60;;;;;;;;;;5014815;28;20196;-52
2023/01/21 18:59:12;;;;;;;2.10;1.58;;;;;;;;;;5011356;28;20576;-51
2023/01/21 19:01:38;;;;;;;1.38;1.27;;;;;;;;;;5015691;28;20287;-51
2023/01/21 19:04:06;;;;;;;1.52;1.42;;;;;;;;;;5008478;28;20192;-52
2023/01/21 19:06:32;;;;;;;1.42;1.33;;;;;;;;;;5016609;28;20590;-52
2023/01/21 19:08:58;;;;;;;1.40;1.30;;;;;;;;;;5009168;28;20199;-51
2023/01/21 19:11:24;;;;;;;1.40;1.30;;;;;;;;;;5010867;28;20185;-51
2023/01/21 19:13:50;;;;;;;1.60;1.45;;;;;;;;;;5012764;28;20251;-52
2023/01/21 19:16:17;;;;;;;2.25;1.40;;;;;;;;;;5010171;28;20204;-52
2023/01/21 19:18:43;;;;;;;1.30;1.20;;;;;;;;;;5005794;28;20185;-52
2023/01/21 19:21:09;;;;;;;1.38;1.27;;;;;;;;;;5011828;28;20276;-52
2023/01/21 19:23:35;;;;;;;1.35;1.25;;;;;;;;;;5014180;28;20204;-53
2023/01/21 19:26:02;;;;;;;1.45;1.27;;;;;;;;;;5012810;28;20196;-52
2023/01/21 19:28:28;;;;;;;1.10;1.10;;;;;;;;;;5015505;28;20204;-51
2023/01/21 19:30:54;;;;;;;1.40;1.30;;;;;;;;;;5016211;28;20259;-52
2023/01/21 19:33:21;;;;;;;1.73;1.15;;;;;;;;;;5021470;28;20193;-52
2023/01/21 19:35:47;;;;;;;1.00;1.00;;;;;;;;;;5015121;28;20176;-52
2023/01/21 19:38:15;;;;;;;1.38;1.23;;;;;;;;;;5012662;28;20185;-51
2023/01/21 19:40:41;;;;;;;1.17;1.00;;;;;;;;;;5014502;28;20195;-51
2023/01/21 19:43:14;;;;;;;1.30;1.20;;;;;;;;;;5015488;28;20188;-51
2023/01/21 19:45:40;;;;;;;1.30;1.20;;;;;;;;;;5014451;28;20189;-51
2023/01/21 19:48:10;;;;;;;1.20;1.10;;;;;;;;;;5010874;28;20270;-51
2023/01/21 19:50:36;;;;;;;1.13;1.13;;;;;;;;;;5007831;28;20576;-51
2023/01/21 19:53:02;;;;;;;1.17;1.08;;;;;;;;;;5008035;28;20292;-51
2023/01/21 19:55:30;;;;;;;1.02;1.00;;;;;;;;;;5005384;28;20203;-51
2023/01/21 19:57:57;;;;;;;2.45;1.40;;;;;;;;;;5011831;28;20226;-52
2023/01/21 20:00:25;;;;;;;1.23;1.13;;;;;;;;;;5012483;28;20222;-52
2023/01/21 20:02:51;;;;;;;1.13;1.02;;;;;;;;;;5015231;28;20199;-51
2023/01/21 20:05:17;;;;;;;1.10;0.80;;;;;;;;;;5007793;28;20196;-51
2023/01/21 20:07:44;;;;;;;0.80;0.80;;;;;;;;;;5015288;28;20204;-51
2023/01/21 20:10:21;;;;;;;1.00;0.90;;;;;;;;;;5015080;28;20173;-51
2023/01/21 20:12:47;;;;;;;0.93;0.93;;;;;;;;;;5014842;28;20194;-51
2023/01/21 20:15:14;;;;;;;1.08;1.08;;;;;;;;;;5013989;28;20570;-51
2023/01/21 20:17:41;;;;;;;0.90;0.90;;;;;;;;;;5014656;28;20189;-51
2023/01/21 20:20:33;;;;;;;1.40;1.30;;;;;;;;;;5007156;28;20205;-52
2023/01/21 20:23:00;;;;;;;0.90;0.90;;;;;;;;;;5006756;28;20287;-52
2023/01/21 20:25:35;;;;;;;1.67;1.00;;;;;;;;;;5009537;28;20543;-51